createdAt,value
2023-02-06T00:00:41.248Z,9.17
2023-02-06T00:03:08.667Z,7.90
2023-02-06T00:05:36.437Z,9.87
2023-02-06T00:08:04.523Z,9.23
2023-02-06T00:10:31.916Z,9.57
2023-02-06T00:12:59.339Z,7.20
2023-02-06T00:15:26.699Z,10.97
2023-02-06T00:17:54.116Z,8.57
2023-02-06T00:20:21.520Z,9.07
2023-02-06T00:22:48.960Z,8.17
2023-02-06T00:25:16.358Z,7.10
2023-02-06T00:27:43.852Z,8.20
2023-02-06T00:30:11.614Z,8.43
2023-02-06T00:32:39.144Z,9.43
2023-02-06T00:35:07.827Z,8.43
2023-02-06T00:37:35.275Z,9.17
2023-02-06T00:40:02.764Z,9.13
2023-02-06T00:42:30.227Z,7.07
2023-02-06T00:44:57.628Z,8.67
2023-02-06T00:47:25.047Z,7.83
2023-02-06T00:49:52.495Z,7.67
2023-02-06T00:52:19.981Z,7.90
2023-02-06T00:54:47.367Z,8.27
2023-02-06T00:57:14.769Z,8.73
2023-02-06T00:59:42.236Z,8.17
2023-02-06T01:02:09.695Z,7.43
2023-02-06T01:04:37.118Z,7.37
2023-02-06T01:07:06.097Z,8.40
2023-02-06T01:09:33.561Z,8.07
2023-02-06T01:12:00.954Z,8.27
2023-02-06T01:14:28.366Z,11.77
2023-02-06T01:16:55.806Z,7.27
2023-02-06T01:19:24.109Z,8.93
2023-02-06T01:21:51.505Z,7.87
2023-02-06T01:24:18.969Z,9.87
2023-02-06T01:26:46.383Z,8.90
2023-02-06T01:29:13.855Z,7.90
2023-02-06T01:31:41.281Z,7.90
2023-02-06T01:34:10.682Z,8.27
2023-02-06T01:36:38.111Z,8.70
2023-02-06T01:39:08.755Z,9.67
2023-02-06T01:41:36.205Z,10.10
2023-02-06T01:44:23.901Z,8.90
2023-02-06T01:46:52.432Z,9.03
2023-02-06T01:49:22.217Z,9.13
2023-02-06T01:51:50.931Z,9.10
2023-02-06T01:54:18.404Z,8.80
2023-02-06T01:56:50.997Z,9.30
2023-02-06T01:59:18.815Z,8.40
2023-02-06T02:01:47.830Z,7.77
2023-02-06T02:04:17.142Z,9.37
2023-02-06T02:06:45.252Z,9.77
2023-02-06T02:09:14.344Z,8.80
2023-02-06T02:11:43.191Z,8.40
2023-02-06T02:14:13.308Z,8.50
2023-02-06T02:16:40.755Z,8.23
2023-02-06T02:19:25.304Z,8.77
2023-02-06T02:21:55.531Z,9.03
2023-02-06T02:24:26.188Z,8.07
2023-02-06T02:27:02.829Z,9.37
2023-02-06T02:29:30.215Z,8.90
2023-02-06T02:32:16.502Z,9.30
2023-02-06T02:34:46.967Z,8.90
2023-02-06T02:37:24.707Z,9.23
2023-02-06T02:39:58.806Z,8.93
2023-02-06T02:42:41.494Z,9.57
2023-02-06T02:45:25.093Z,9.33
2023-02-06T02:47:59.279Z,9.50
2023-02-06T02:50:27.307Z,8.97
2023-02-06T02:52:54.795Z,8.93
2023-02-06T02:55:23.099Z,9.93
2023-02-06T02:57:58.477Z,9.53
2023-02-06T03:00:27.164Z,9.07
2023-02-06T03:02:56.880Z,9.20
2023-02-06T03:05:25.680Z,9.27
2023-02-06T03:07:54.234Z,9.03
2023-02-06T03:10:40.450Z,10.33
2023-02-06T03:13:11.711Z,9.63
2023-02-06T03:15:57.490Z,9.77
2023-02-06T03:18:29.160Z,8.20
2023-02-06T03:20:57.977Z,10.50
2023-02-06T03:23:28.219Z,9.60
2023-02-06T03:25:56.920Z,9.83
2023-02-06T03:28:28.387Z,9.27
2023-02-06T03:30:57.844Z,10.30
2023-02-06T03:33:27.817Z,10.37
2023-02-06T03:35:56.548Z,10.03
2023-02-06T03:38:24.832Z,10.27
2023-02-06T03:40:54.020Z,9.20
2023-02-06T03:43:23.463Z,8.57
2023-02-06T03:45:53.050Z,9.27
2023-02-06T03:48:24.489Z,10.43
2023-02-06T03:50:54.419Z,8.87
2023-02-06T03:53:22.961Z,9.03
2023-02-06T03:55:53.181Z,9.53
2023-02-06T03:58:20.738Z,10.03
2023-02-06T04:00:48.998Z,10.77
2023-02-06T04:03:16.508Z,9.33
2023-02-06T04:05:43.891Z,8.70
2023-02-06T04:08:11.280Z,8.77
2023-02-06T04:10:38.675Z,10.17
2023-02-06T04:13:06.099Z,9.43
2023-02-06T04:15:33.848Z,10.23
2023-02-06T04:18:02.014Z,9.80
2023-02-06T04:20:30.215Z,10.13
2023-02-06T04:22:58.001Z,9.33
2023-02-06T04:25:25.697Z,8.97
2023-02-06T04:27:53.169Z,11.17
2023-02-06T04:30:20.639Z,10.27
2023-02-06T04:32:48.157Z,8.60
2023-02-06T04:35:15.628Z,11.10
2023-02-06T04:37:43.003Z,8.83
2023-02-06T04:40:10.740Z,10.43
2023-02-06T04:42:38.527Z,9.07
2023-02-06T04:45:06.124Z,10.67
2023-02-06T04:47:33.530Z,9.97
2023-02-06T04:50:01.061Z,9.27
2023-02-06T04:52:28.529Z,9.80
2023-02-06T04:54:55.924Z,9.37
2023-02-06T04:57:24.068Z,10.77
2023-02-06T04:59:51.451Z,10.03
2023-02-06T05:02:18.879Z,9.27
2023-02-06T05:04:46.340Z,8.83
2023-02-06T05:07:13.718Z,10.33
2023-02-06T05:09:41.145Z,10.13
2023-02-06T05:12:08.596Z,10.03
2023-02-06T05:14:36.052Z,9.90
2023-02-06T05:17:03.448Z,9.97
2023-02-06T05:19:30.891Z,10.27
2023-02-06T05:21:58.307Z,9.93
2023-02-06T05:24:25.763Z,10.97
2023-02-06T05:26:53.164Z,11.20
2023-02-06T05:29:20.557Z,11.17
2023-02-06T05:31:48.052Z,10.27
2023-02-06T05:34:15.475Z,10.50
2023-02-06T05:36:42.941Z,12.13
2023-02-06T05:39:10.318Z,10.07
2023-02-06T05:41:37.745Z,12.10
2023-02-06T05:44:05.174Z,11.70
2023-02-06T05:46:32.607Z,11.80
2023-02-06T05:49:01.166Z,11.57
2023-02-06T05:51:28.872Z,10.50
2023-02-06T05:53:56.522Z,12.40
2023-02-06T05:56:24.260Z,11.50
2023-02-06T05:58:51.945Z,11.07
2023-02-06T06:01:19.708Z,10.50
2023-02-06T06:03:47.407Z,12.00
2023-02-06T06:06:15.312Z,10.60
2023-02-06T06:08:43.151Z,11.13
2023-02-06T06:11:11.016Z,10.03
2023-02-06T06:13:38.706Z,10.40
2023-02-06T06:16:06.544Z,10.17
2023-02-06T06:18:34.257Z,9.93
2023-02-06T06:21:01.932Z,11.20
2023-02-06T06:23:29.653Z,11.57
2023-02-06T06:25:57.315Z,10.20
2023-02-06T06:28:25.132Z,9.63
2023-02-06T06:30:52.827Z,12.20
2023-02-06T06:33:20.542Z,10.40
2023-02-06T06:35:48.235Z,11.00
2023-02-06T06:38:15.949Z,10.83
2023-02-06T06:40:43.595Z,10.27
2023-02-06T06:43:11.327Z,11.10
2023-02-06T06:45:39.317Z,11.43
2023-02-06T06:48:07.385Z,12.13
2023-02-06T06:50:35.021Z,10.90
2023-02-06T06:53:02.860Z,9.43
2023-02-06T06:55:30.780Z,10.30
2023-02-06T06:57:58.502Z,12.57
2023-02-06T07:00:26.477Z,10.70
2023-02-06T07:02:54.204Z,12.07
2023-02-06T07:05:22.012Z,12.40
2023-02-06T07:07:49.681Z,10.70
2023-02-06T07:10:17.403Z,10.80
2023-02-06T07:12:45.053Z,12.03
2023-02-06T07:15:12.819Z,9.87
2023-02-06T07:17:40.531Z,12.27
2023-02-06T07:20:08.332Z,12.57
2023-02-06T07:22:36.070Z,12.03
2023-02-06T07:25:03.918Z,10.80
2023-02-06T07:27:31.904Z,11.33
2023-02-06T07:30:00.086Z,10.87
2023-02-06T07:32:28.281Z,11.03
2023-02-06T07:34:55.952Z,11.27
2023-02-06T07:37:23.764Z,10.70
2023-02-06T07:39:51.459Z,12.13
2023-02-06T07:42:19.324Z,13.80
2023-02-06T07:44:55.129Z,11.20
2023-02-06T07:47:22.894Z,11.17
2023-02-06T07:49:50.640Z,11.20
2023-02-06T07:52:20.365Z,12.43
2023-02-06T07:54:48.138Z,13.30
2023-02-06T07:57:16.484Z,11.43
2023-02-06T07:59:44.223Z,12.40
2023-02-06T08:02:12.807Z,12.27
2023-02-06T08:04:40.893Z,12.90
2023-02-06T08:07:11.331Z,12.47
2023-02-06T08:09:39.109Z,11.67
2023-02-06T08:12:06.866Z,11.83
2023-02-06T08:14:34.620Z,11.83
2023-02-06T08:17:02.398Z,11.97
2023-02-06T08:19:30.176Z,10.77
2023-02-06T08:21:57.914Z,12.30
2023-02-06T08:24:25.714Z,12.03
2023-02-06T08:26:53.436Z,12.27
2023-02-06T08:29:21.384Z,10.83
2023-02-06T08:31:49.349Z,14.50
2023-02-06T08:34:17.188Z,14.03
2023-02-06T08:36:44.854Z,13.63
2023-02-06T08:39:16.102Z,10.93
2023-02-06T08:41:44.513Z,13.10
2023-02-06T08:44:14.572Z,12.73
2023-02-06T08:46:42.904Z,12.07
2023-02-06T08:49:20.462Z,11.87
2023-02-06T08:51:50.389Z,13.67
2023-02-06T08:54:19.530Z,13.23
2023-02-06T08:56:47.494Z,13.23
2023-02-06T08:59:16.205Z,12.03
2023-02-06T09:01:45.788Z,14.30
2023-02-06T09:04:14.353Z,15.53
2023-02-06T09:06:43.733Z,11.70
2023-02-06T09:09:11.972Z,12.77
2023-02-06T09:11:40.172Z,12.93
2023-02-06T09:14:08.983Z,11.97
2023-02-06T09:16:38.199Z,13.13
2023-02-06T09:19:06.655Z,11.87
2023-02-06T09:21:35.728Z,13.10
2023-02-06T09:24:07.535Z,12.70
2023-02-06T09:26:53.451Z,12.13
2023-02-06T09:29:26.060Z,14.40
2023-02-06T09:31:53.869Z,11.80
2023-02-06T09:34:21.637Z,12.33
2023-02-06T09:36:49.431Z,11.63
2023-02-06T09:39:17.106Z,12.40
2023-02-06T09:41:44.838Z,12.40
2023-02-06T09:44:15.517Z,13.77
2023-02-06T09:46:54.128Z,10.60
2023-02-06T09:49:50.995Z,11.20
2023-02-06T09:52:30.292Z,10.63
2023-02-06T09:55:04.121Z,11.53
2023-02-06T09:57:40.703Z,10.77
2023-02-06T10:00:26.802Z,10.50
2023-02-06T10:02:54.493Z,11.40
2023-02-06T10:05:29.231Z,10.23
2023-02-06T10:08:08.993Z,10.53
2023-02-06T10:10:45.481Z,12.30
2023-02-06T10:13:25.090Z,13.77
2023-02-06T10:15:54.749Z,10.93
2023-02-06T10:18:31.632Z,11.77
2023-02-06T10:21:08.491Z,12.33
2023-02-06T10:23:42.334Z,11.30
2023-02-06T10:26:18.346Z,5.23
2023-02-06T10:28:50.688Z,12.47
2023-02-06T10:31:30.757Z,10.77
2023-02-06T10:34:17.055Z,9.00
2023-02-06T10:36:50.811Z,12.00
2023-02-06T10:39:37.248Z,11.90
2023-02-06T10:42:21.899Z,12.97
2023-02-06T10:45:03.568Z,11.93
2023-02-06T10:47:42.241Z,11.70
2023-02-06T10:50:28.641Z,11.57
2023-02-06T10:53:05.234Z,11.80
2023-02-06T10:55:46.685Z,11.67
2023-02-06T10:58:21.745Z,11.07
2023-02-06T11:00:51.241Z,11.13
2023-02-06T11:03:20.787Z,9.97
2023-02-06T11:05:48.593Z,9.80
2023-02-06T11:08:28.584Z,10.80
2023-02-06T11:10:56.457Z,11.00
2023-02-06T11:13:37.958Z,10.13
2023-02-06T11:16:08.549Z,9.93
2023-02-06T11:18:43.555Z,13.23
2023-02-06T11:21:13.064Z,10.10
2023-02-06T11:23:42.276Z,9.93
2023-02-06T11:26:18.316Z,11.90
2023-02-06T11:28:57.269Z,11.10
2023-02-06T11:31:46.537Z,9.23
2023-02-06T11:34:34.604Z,10.10
2023-02-06T11:37:29.434Z,9.40
2023-02-06T11:40:15.524Z,10.70
2023-02-06T11:42:43.740Z,10.83
2023-02-06T11:45:23.534Z,13.17
2023-02-06T11:47:51.262Z,10.80
2023-02-06T11:50:27.547Z,10.23
2023-02-06T11:53:21.685Z,9.83
2023-02-06T11:55:58.760Z,10.03
2023-02-06T11:58:27.803Z,12.33
2023-02-06T12:00:55.491Z,10.80
2023-02-06T12:03:30.918Z,12.20
2023-02-06T12:06:03.042Z,10.80
2023-02-06T12:08:37.709Z,10.63
2023-02-06T12:11:07.751Z,10.47
2023-02-06T12:13:40.368Z,12.57
2023-02-06T12:16:08.660Z,9.77
2023-02-06T12:18:38.152Z,12.20
2023-02-06T12:21:07.509Z,12.27
2023-02-06T12:23:47.198Z,12.40
2023-02-06T12:26:19.642Z,11.40
2023-02-06T12:28:53.268Z,10.27
2023-02-06T12:31:24.364Z,11.37
2023-02-06T12:34:04.845Z,10.03
2023-02-06T12:36:36.278Z,11.53
2023-02-06T12:39:17.623Z,10.50
2023-02-06T12:42:03.858Z,11.23
2023-02-06T12:44:39.736Z,11.80
2023-02-06T12:47:13.423Z,9.63
2023-02-06T12:49:55.746Z,11.93
2023-02-06T12:52:23.421Z,12.20
2023-02-06T12:54:59.899Z,12.37
2023-02-06T12:57:28.977Z,10.90
2023-02-06T13:00:23.677Z,11.53
2023-02-06T13:02:54.220Z,12.30
2023-02-06T13:05:26.313Z,13.57
2023-02-06T13:07:55.012Z,10.83
2023-02-06T13:10:25.955Z,10.73
2023-02-06T13:12:57.577Z,11.67
2023-02-06T13:15:27.100Z,10.70
2023-02-06T13:17:55.998Z,12.13
2023-02-06T13:20:24.950Z,10.73
2023-02-06T13:22:54.314Z,11.07
2023-02-06T13:25:31.336Z,11.90
2023-02-06T13:28:02.871Z,10.17
2023-02-06T13:30:32.487Z,13.90
2023-02-06T13:33:10.137Z,10.17
2023-02-06T13:35:54.721Z,12.53
2023-02-06T13:38:25.302Z,11.93
2023-02-06T13:41:11.684Z,11.50
2023-02-06T13:43:40.101Z,11.27
2023-02-06T13:46:10.123Z,11.10
2023-02-06T13:48:46.548Z,13.63
2023-02-06T13:51:23.216Z,10.40
2023-02-06T13:54:09.785Z,10.97
2023-02-06T13:57:14.870Z,10.70
2023-02-06T13:59:47.710Z,11.80
2023-02-06T14:02:25.078Z,11.40
2023-02-06T14:04:52.890Z,11.00
2023-02-06T14:07:29.771Z,13.23
2023-02-06T14:10:16.308Z,12.07
2023-02-06T14:12:47.156Z,10.27
2023-02-06T14:15:26.571Z,12.00
2023-02-06T14:18:09.700Z,11.27
2023-02-06T14:20:45.162Z,11.37
2023-02-06T14:23:18.121Z,12.33
2023-02-06T14:26:04.637Z,11.67
2023-02-06T14:28:42.265Z,13.23
2023-02-06T14:31:20.951Z,10.73
2023-02-06T14:34:04.498Z,12.30
2023-02-06T14:36:34.999Z,11.17
2023-02-06T14:39:21.552Z,11.73
2023-02-06T14:41:49.327Z,10.47
2023-02-06T14:44:25.528Z,11.23
2023-02-06T14:46:53.332Z,10.37
2023-02-06T14:49:27.183Z,11.40
2023-02-06T14:51:55.010Z,12.23
2023-02-06T14:54:31.367Z,11.00
2023-02-06T14:57:00.591Z,11.17
2023-02-06T14:59:28.996Z,10.80
2023-02-06T15:01:57.729Z,13.80
2023-02-06T15:04:27.312Z,10.10
2023-02-06T15:06:57.073Z,11.30
2023-02-06T15:09:39.471Z,12.13
2023-02-06T15:12:20.588Z,11.70
2023-02-06T15:15:03.001Z,10.77
2023-02-06T15:17:31.626Z,10.77
2023-02-06T15:20:14.828Z,11.03
2023-02-06T15:22:42.675Z,11.83
2023-02-06T15:25:29.011Z,13.53
2023-02-06T15:28:04.988Z,13.03
2023-02-06T15:30:33.597Z,10.97
2023-02-06T15:33:02.170Z,12.43
2023-02-06T15:35:32.527Z,11.87
2023-02-06T15:38:04.977Z,10.93
2023-02-06T15:40:39.315Z,11.30
2023-02-06T15:43:07.426Z,12.17
2023-02-06T15:45:37.549Z,11.07
2023-02-06T15:48:11.147Z,10.67
2023-02-06T15:50:39.342Z,12.57
2023-02-06T15:53:20.642Z,10.73
2023-02-06T15:55:53.391Z,11.53
2023-02-06T15:58:21.515Z,12.00
2023-02-06T16:00:56.460Z,13.33
2023-02-06T16:03:27.369Z,12.00
2023-02-06T16:05:56.616Z,12.07
2023-02-06T16:08:33.777Z,12.40
2023-02-06T16:11:03.802Z,13.33
2023-02-06T16:13:33.174Z,14.13
2023-02-06T16:16:02.534Z,15.23
2023-02-06T16:18:30.548Z,17.80
2023-02-06T16:21:19.414Z,18.60
2023-02-06T16:24:10.189Z,20.13
2023-02-06T16:26:43.237Z,20.37
2023-02-06T16:29:11.026Z,21.67
2023-02-06T16:31:43.190Z,17.93
2023-02-06T16:34:21.908Z,20.40
2023-02-06T16:36:49.650Z,18.90
2023-02-06T16:39:17.735Z,17.20
2023-02-06T16:41:51.706Z,22.17
2023-02-06T16:44:20.456Z,16.87
2023-02-06T16:46:48.518Z,16.67
2023-02-06T16:49:17.405Z,16.40
2023-02-06T16:51:45.815Z,20.87
2023-02-06T16:54:20.396Z,16.23
2023-02-06T16:56:48.418Z,15.93
2023-02-06T16:59:16.169Z,16.03
2023-02-06T17:01:44.028Z,16.27
2023-02-06T17:04:11.986Z,16.00
2023-02-06T17:06:39.845Z,17.57
2023-02-06T17:09:11.127Z,17.83
2023-02-06T17:11:39.312Z,18.53
2023-02-06T17:14:07.321Z,15.67
2023-02-06T17:16:35.106Z,14.40
2023-02-06T17:19:02.859Z,13.87
2023-02-06T17:21:33.316Z,14.97
2023-02-06T17:24:01.354Z,12.90
2023-02-06T17:26:29.157Z,13.93
2023-02-06T17:28:57.124Z,13.70
2023-02-06T17:31:25.083Z,15.07
2023-02-06T17:33:52.765Z,16.57
2023-02-06T17:36:29.438Z,14.70
2023-02-06T17:39:00.922Z,15.13
2023-02-06T17:41:31.883Z,15.03
2023-02-06T17:43:59.763Z,15.50
2023-02-06T17:46:27.521Z,15.00
2023-02-06T17:48:55.287Z,15.53
2023-02-06T17:51:23.310Z,15.70
2023-02-06T17:53:52.118Z,15.73
2023-02-06T17:56:21.140Z,14.57
2023-02-06T17:58:48.987Z,15.47
2023-02-06T18:01:18.607Z,15.87
2023-02-06T18:03:47.958Z,15.97
2023-02-06T18:06:15.932Z,16.00
2023-02-06T18:08:44.302Z,17.23
2023-02-06T18:11:13.529Z,19.00
2023-02-06T18:13:42.711Z,17.83
2023-02-06T18:16:14.470Z,18.27
2023-02-06T18:18:42.411Z,17.03
2023-02-06T18:21:10.465Z,21.53
2023-02-06T18:23:38.639Z,16.53
2023-02-06T18:26:07.675Z,15.57
2023-02-06T18:28:36.598Z,18.80
2023-02-06T18:31:05.036Z,17.43
2023-02-06T18:33:38.912Z,15.73
2023-02-06T18:36:07.151Z,17.47
2023-02-06T18:38:35.035Z,16.67
2023-02-06T18:41:07.086Z,15.97
2023-02-06T18:43:34.966Z,17.10
2023-02-06T18:46:08.912Z,16.90
2023-02-06T18:48:36.743Z,18.13
2023-02-06T18:51:07.804Z,16.33
2023-02-06T18:53:35.586Z,15.20
2023-02-06T18:56:03.437Z,16.73
2023-02-06T18:58:31.257Z,14.87
2023-02-06T19:00:59.192Z,14.83
2023-02-06T19:03:26.992Z,39.57
2023-02-06T19:05:57.553Z,46.07
2023-02-06T19:08:25.274Z,38.13
2023-02-06T19:10:53.073Z,26.70
2023-02-06T19:13:20.920Z,26.17
2023-02-06T19:15:48.889Z,24.47
2023-02-06T19:18:19.793Z,20.70
2023-02-06T19:20:51.365Z,21.23
2023-02-06T19:23:19.137Z,18.73
2023-02-06T19:25:46.851Z,17.80
2023-02-06T19:28:14.579Z,18.30
2023-02-06T19:30:42.495Z,20.60
2023-02-06T19:33:10.310Z,16.13
2023-02-06T19:35:40.913Z,18.93
2023-02-06T19:38:08.713Z,15.60
2023-02-06T19:40:37.355Z,18.53
2023-02-06T19:43:05.237Z,19.70
2023-02-06T19:45:32.987Z,16.30
2023-02-06T19:48:00.768Z,17.70
2023-02-06T19:50:28.595Z,15.37
2023-02-06T19:52:56.484Z,16.83
2023-02-06T19:55:24.218Z,17.40
2023-02-06T19:57:52.026Z,15.97
2023-02-06T20:00:19.914Z,17.70
2023-02-06T20:02:47.702Z,15.57
2023-02-06T20:05:15.529Z,14.37
2023-02-06T20:07:43.328Z,14.70
2023-02-06T20:10:11.146Z,16.20
2023-02-06T20:12:38.823Z,16.27
2023-02-06T20:15:07.099Z,14.47
2023-02-06T20:17:34.816Z,15.50
2023-02-06T20:20:02.614Z,15.03
2023-02-06T20:22:30.304Z,13.93
2023-02-06T20:24:58.070Z,14.13
2023-02-06T20:27:26.593Z,12.60
2023-02-06T20:29:54.406Z,15.67
2023-02-06T20:32:22.913Z,14.93
2023-02-06T20:34:50.736Z,14.17
2023-02-06T20:37:18.648Z,13.57
2023-02-06T20:39:46.469Z,14.77
2023-02-06T20:42:14.228Z,15.77
2023-02-06T20:44:41.958Z,15.87
2023-02-06T20:47:09.694Z,14.93
2023-02-06T20:49:37.674Z,15.77
2023-02-06T20:52:06.576Z,16.13
2023-02-06T20:54:34.365Z,13.33
2023-02-06T20:57:02.044Z,14.97
2023-02-06T20:59:29.831Z,15.30
2023-02-06T21:01:57.637Z,13.97
2023-02-06T21:04:25.716Z,14.90
2023-02-06T21:06:53.680Z,15.93
2023-02-06T21:09:21.378Z,13.63
2023-02-06T21:11:50.361Z,13.00
2023-02-06T21:14:18.060Z,16.67
2023-02-06T21:16:46.186Z,14.73
2023-02-06T21:19:14.946Z,16.17
2023-02-06T21:21:45.835Z,15.30
2023-02-06T21:24:14.245Z,13.07
2023-02-06T21:26:42.217Z,13.70
2023-02-06T21:29:10.994Z,18.07
2023-02-06T21:31:39.062Z,13.53
2023-02-06T21:34:12.347Z,15.03
2023-02-06T21:36:40.617Z,13.37
2023-02-06T21:39:08.832Z,13.03
2023-02-06T21:41:37.265Z,13.90
2023-02-06T21:44:05.462Z,14.80
2023-02-06T21:46:33.632Z,15.07
2023-02-06T21:49:01.547Z,14.60
2023-02-06T21:51:29.329Z,14.50
2023-02-06T21:53:57.256Z,14.43
2023-02-06T21:56:27.147Z,16.33
2023-02-06T21:58:55.208Z,14.10
2023-02-06T22:01:25.466Z,14.93
2023-02-06T22:03:53.261Z,15.33
2023-02-06T22:06:21.236Z,15.93
2023-02-06T22:08:51.929Z,15.30
2023-02-06T22:11:27.594Z,18.00
2023-02-06T22:13:58.883Z,16.67
2023-02-06T22:16:27.290Z,14.93
2023-02-06T22:18:55.052Z,18.17
2023-02-06T22:21:24.161Z,16.00
2023-02-06T22:23:52.494Z,15.33
2023-02-06T22:26:21.407Z,16.73
2023-02-06T22:28:49.439Z,15.83
2023-02-06T22:31:18.673Z,16.83
2023-02-06T22:33:46.805Z,15.40
2023-02-06T22:36:15.895Z,15.23
2023-02-06T22:38:44.490Z,18.10
2023-02-06T22:41:15.628Z,19.07
2023-02-06T22:43:43.937Z,16.87
2023-02-06T22:46:17.768Z,17.90
2023-02-06T22:48:45.547Z,18.43
2023-02-06T22:51:13.250Z,17.60
2023-02-06T22:53:41.517Z,19.80
2023-02-06T22:56:32.504Z,20.67
2023-02-06T22:59:03.315Z,19.90
2023-02-06T23:01:33.343Z,18.83
2023-02-06T23:04:01.671Z,20.10
2023-02-06T23:06:30.364Z,19.10
2023-02-06T23:08:58.785Z,18.73
2023-02-06T23:11:27.066Z,18.87
2023-02-06T23:13:59.381Z,18.13
2023-02-06T23:16:28.073Z,17.27
2023-02-06T23:18:56.163Z,17.87
2023-02-06T23:21:25.175Z,17.30
2023-02-06T23:23:54.600Z,18.20
2023-02-06T23:26:22.334Z,18.90
2023-02-06T23:28:50.151Z,17.57
2023-02-06T23:31:17.946Z,17.00
2023-02-06T23:33:45.815Z,18.07
2023-02-06T23:36:15.270Z,17.83
2023-02-06T23:38:43.345Z,21.30
2023-02-06T23:41:12.249Z,19.03
2023-02-06T23:43:40.442Z,16.93
2023-02-06T23:46:11.017Z,20.87
2023-02-06T23:48:40.201Z,18.67
2023-02-06T23:51:08.024Z,18.57
2023-02-06T23:53:35.997Z,19.83
2023-02-06T23:56:09.925Z,17.93
2023-02-06T23:58:37.618Z,18.60
